createdAt,value
2018-11-13T05:24:15.501Z,38.67
2018-11-13T05:26:44.532Z,94.87
2018-11-13T05:29:13.172Z,94.70
2018-11-13T05:31:41.851Z,125.57
2018-11-13T05:34:10.232Z,96.13
2018-11-13T05:36:38.621Z,234.27
2018-11-13T05:39:09.165Z,105.60
2018-11-13T05:41:37.865Z,60.23
2018-11-13T05:44:07.175Z,90.40
2018-11-13T05:46:36.112Z,98.57
2018-11-13T05:49:04.574Z,42.70
2018-11-13T05:51:33.380Z,95.30
2018-11-13T05:54:02.205Z,103.03
2018-11-13T05:56:30.945Z,74.83
2018-11-13T05:58:59.883Z,71.97
2018-11-13T06:01:28.277Z,58.00
2018-11-13T06:03:57.291Z,48.43
2018-11-13T06:06:25.896Z,37.63
2018-11-13T06:08:54.472Z,70.60
2018-11-13T06:11:22.885Z,27.37
2018-11-13T06:13:52.036Z,47.93
2018-11-13T06:16:20.425Z,37.50
2018-11-13T06:18:49.639Z,52.47
2018-11-13T06:21:18.225Z,43.57
2018-11-13T06:23:47.008Z,73.20
2018-11-13T06:26:16.079Z,30.50
2018-11-13T06:28:45.102Z,33.17
2018-11-13T06:31:14.654Z,35.83
2018-11-13T06:33:43.075Z,42.70
2018-11-13T06:36:11.661Z,26.50
2018-11-13T06:38:40.649Z,35.30
2018-11-13T06:41:09.100Z,58.13
2018-11-13T06:43:37.632Z,28.00
2018-11-13T06:46:06.386Z,43.63
2018-11-13T06:48:35.751Z,45.60
2018-11-13T06:51:04.161Z,44.30
2018-11-13T06:53:42.307Z,47.20
2018-11-13T06:56:10.724Z,58.90
2018-11-13T06:58:39.353Z,47.03
2018-11-13T07:01:08.048Z,89.50
2018-11-13T07:03:36.740Z,54.63
2018-11-13T07:06:05.253Z,74.80
2018-11-13T07:08:34.126Z,106.93
2018-11-13T07:11:02.922Z,65.00
2018-11-13T07:13:31.461Z,30.37
2018-11-13T07:15:59.969Z,25.60
2018-11-13T07:18:28.930Z,13.40
2018-11-13T07:20:57.235Z,18.83
2018-11-13T07:23:25.975Z,10.40
2018-11-13T07:25:55.701Z,8.67
2018-11-13T07:28:24.188Z,10.67
2018-11-13T07:30:52.597Z,10.03
2018-11-13T07:33:20.979Z,10.67
2018-11-13T07:35:49.666Z,11.63
2018-11-13T07:38:18.398Z,7.70
2018-11-13T07:40:47.140Z,8.20
2018-11-13T07:43:15.536Z,8.60
2018-11-13T07:45:43.931Z,7.70
2018-11-13T07:48:12.510Z,5.40
2018-11-13T07:50:40.877Z,6.80
2018-11-13T07:53:09.576Z,5.67
2018-11-13T07:55:38.295Z,5.20
2018-11-13T07:58:06.703Z,4.77
2018-11-13T08:00:35.698Z,4.33
2018-11-13T08:03:15.239Z,6.17
2018-11-13T08:05:43.921Z,4.60
2018-11-13T08:08:12.424Z,4.37
2018-11-13T08:10:41.413Z,5.37
2018-11-13T08:13:10.153Z,4.03
2018-11-13T08:15:38.510Z,3.67
2018-11-13T08:18:07.442Z,6.57
2018-11-13T08:20:35.853Z,5.20
2018-11-13T08:23:04.256Z,4.87
2018-11-13T08:25:32.883Z,5.93
2018-11-13T08:28:01.662Z,5.83
2018-11-13T08:30:31.203Z,6.03
2018-11-13T08:33:00.180Z,5.90
2018-11-13T08:35:29.092Z,5.17
2018-11-13T08:37:57.810Z,7.70
2018-11-13T08:40:26.538Z,5.83
2018-11-13T08:42:54.969Z,5.33
2018-11-13T08:45:23.367Z,5.63
2018-11-13T08:47:53.568Z,5.03
2018-11-13T08:50:22.047Z,6.30
2018-11-13T08:52:50.375Z,5.57
2018-11-13T08:55:18.988Z,6.43
2018-11-13T08:57:47.931Z,9.27
2018-11-13T09:00:18.223Z,7.80
2018-11-13T09:02:47.691Z,8.20
2018-11-13T09:05:16.585Z,8.20
2018-11-13T09:07:45.992Z,8.73
2018-11-13T09:10:16.235Z,6.27
2018-11-13T09:12:45.468Z,5.90
2018-11-13T09:15:15.752Z,5.63
2018-11-13T09:17:44.205Z,5.10
2018-11-13T09:20:14.265Z,5.73
2018-11-13T09:22:43.204Z,6.47
2018-11-13T09:25:16.249Z,6.50
2018-11-13T09:27:45.118Z,8.23
2018-11-13T09:30:15.632Z,7.37
2018-11-13T09:32:45.289Z,9.07
2018-11-13T09:35:15.200Z,4.80
2018-11-13T09:37:44.026Z,5.47
2018-11-13T09:40:15.054Z,6.77
2018-11-13T09:42:44.866Z,8.37
2018-11-13T09:45:14.257Z,7.13
2018-11-13T09:47:42.843Z,5.73
2018-11-13T09:50:14.149Z,7.20
2018-11-13T09:52:43.940Z,8.47
2018-11-13T09:55:14.810Z,7.00
2018-11-13T09:57:43.452Z,8.53
2018-11-13T10:00:19.168Z,7.13
2018-11-13T10:02:49.753Z,7.43
2018-11-13T10:05:19.047Z,7.63
2018-11-13T10:07:47.732Z,10.27
2018-11-13T10:10:16.437Z,8.47
2018-11-13T10:12:44.812Z,9.83
2018-11-13T10:15:15.775Z,9.30
2018-11-13T10:17:44.301Z,9.73
2018-11-13T10:20:14.246Z,8.70
2018-11-13T10:22:44.174Z,8.33
2018-11-13T10:25:13.120Z,9.27
2018-11-13T10:27:42.479Z,9.53
2018-11-13T10:30:16.954Z,9.00
2018-11-13T10:32:47.248Z,7.30
2018-11-13T10:35:17.608Z,9.97
2018-11-13T10:37:46.037Z,8.93
2018-11-13T10:40:16.089Z,8.50
2018-11-13T10:42:44.531Z,9.30
2018-11-13T10:45:17.094Z,9.33
2018-11-13T10:47:46.051Z,9.97
2018-11-13T10:50:20.412Z,10.47
2018-11-13T10:52:48.719Z,8.10
2018-11-13T10:55:17.893Z,9.77
2018-11-13T10:57:46.247Z,9.50
2018-11-13T11:00:21.357Z,10.90
2018-11-13T11:02:55.888Z,9.63
2018-11-13T11:05:25.608Z,8.00
2018-11-13T11:07:54.798Z,8.60
2018-11-13T11:10:23.278Z,9.80
2018-11-13T11:12:51.971Z,7.60
2018-11-13T11:15:20.611Z,9.30
2018-11-13T11:17:49.342Z,7.67
2018-11-13T11:20:18.308Z,8.77
2018-11-13T11:22:47.079Z,8.00
2018-11-13T11:25:15.554Z,8.83
2018-11-13T11:27:44.355Z,8.40
2018-11-13T11:30:14.823Z,11.10
2018-11-13T11:32:43.401Z,8.37
2018-11-13T11:35:12.568Z,9.83
2018-11-13T11:37:41.786Z,6.20
2018-11-13T11:40:11.207Z,7.77
2018-11-13T11:42:39.970Z,7.63
2018-11-13T11:45:11.909Z,8.33
2018-11-13T11:47:40.635Z,5.43
2018-11-13T11:50:10.512Z,5.13
2018-11-13T11:52:39.217Z,6.23
2018-11-13T11:55:08.507Z,5.63
2018-11-13T11:57:37.259Z,6.00
2018-11-13T12:00:09.480Z,5.83
2018-11-13T12:02:37.893Z,7.50
2018-11-13T12:05:07.718Z,8.10
2018-11-13T12:07:36.858Z,6.37
2018-11-13T12:10:07.364Z,7.30
2018-11-13T12:12:36.040Z,9.33
2018-11-13T12:15:06.001Z,7.00
2018-11-13T12:17:34.379Z,6.20
2018-11-13T12:20:02.798Z,7.60
2018-11-13T12:22:31.743Z,6.23
2018-11-13T12:25:00.139Z,13.10
2018-11-13T12:27:28.583Z,6.70
2018-11-13T12:29:57.153Z,5.17
2018-11-13T12:32:25.534Z,5.30
2018-11-13T12:34:53.949Z,4.07
2018-11-13T12:37:23.324Z,4.27
2018-11-13T12:39:51.984Z,4.00
2018-11-13T12:42:20.869Z,3.73
2018-11-13T12:44:49.907Z,4.67
2018-11-13T12:47:18.688Z,5.33
2018-11-13T12:49:47.272Z,5.10
2018-11-13T12:52:18.290Z,6.40
2018-11-13T12:54:47.580Z,4.70
2018-11-13T12:57:16.653Z,3.73
2018-11-13T12:59:45.349Z,4.07
2018-11-13T13:02:14.177Z,5.27
2018-11-13T13:04:42.823Z,3.53
2018-11-13T13:07:12.047Z,3.00
2018-11-13T13:09:40.897Z,3.27
2018-11-13T13:12:10.395Z,6.10
2018-11-13T13:14:39.116Z,3.67
2018-11-13T13:17:07.743Z,3.23
2018-11-13T13:19:36.106Z,3.40
2018-11-13T13:22:04.716Z,4.43
2018-11-13T13:24:33.468Z,3.00
2018-11-13T13:27:02.476Z,3.83
2018-11-13T13:29:31.459Z,3.73
2018-11-13T13:32:00.253Z,4.60
2018-11-13T13:34:28.690Z,3.53
2018-11-13T13:36:57.090Z,3.60
2018-11-13T13:39:25.646Z,4.40
2018-11-13T13:41:54.586Z,2.87
2018-11-13T13:44:22.981Z,3.53
2018-11-13T13:46:51.675Z,3.00
2018-11-13T13:49:20.064Z,2.97
2018-11-13T13:51:48.808Z,3.87
2018-11-13T13:54:17.772Z,6.87
2018-11-13T13:56:46.119Z,5.37
2018-11-13T13:59:14.810Z,3.13
2018-11-13T14:01:43.749Z,2.60
2018-11-13T14:04:12.157Z,3.90
2018-11-13T14:06:41.269Z,3.17
2018-11-13T14:09:10.991Z,1.97
2018-11-13T14:11:39.789Z,5.97
2018-11-13T14:14:08.947Z,3.47
2018-11-13T14:16:38.857Z,4.13
2018-11-13T14:19:07.619Z,6.60
2018-11-13T14:21:36.323Z,2.13
2018-11-13T14:24:05.021Z,1.83
2018-11-13T14:26:34.003Z,2.57
2018-11-13T14:29:02.720Z,1.80
2018-11-13T14:31:31.490Z,1.60
2018-11-13T14:33:59.942Z,2.57
2018-11-13T14:36:28.628Z,2.17
2018-11-13T14:38:57.392Z,3.90
2018-11-13T14:41:26.098Z,2.93
2018-11-13T14:43:54.548Z,4.37
2018-11-13T14:46:23.037Z,5.63
2018-11-13T14:48:52.146Z,3.10
2018-11-13T14:51:20.856Z,2.00
2018-11-13T14:53:49.279Z,2.27
2018-11-13T14:56:18.690Z,1.20
2018-11-13T14:58:47.251Z,1.30
2018-11-13T15:01:15.732Z,1.70
2018-11-13T15:03:44.313Z,2.27
2018-11-13T15:06:13.211Z,1.80
2018-11-13T15:08:41.641Z,2.10
2018-11-13T15:11:10.346Z,1.93
2018-11-13T15:13:38.753Z,2.30
2018-11-13T15:16:09.654Z,3.57
2018-11-13T15:18:41.331Z,1.10
2018-11-13T15:21:11.867Z,2.17
2018-11-13T15:23:41.638Z,1.10
2018-11-13T15:26:10.397Z,1.73
2018-11-13T15:28:39.427Z,1.87
2018-11-13T15:31:07.932Z,1.27
2018-11-13T15:33:36.610Z,1.40
2018-11-13T15:36:05.566Z,1.73
2018-11-13T15:38:34.085Z,3.43
2018-11-13T15:41:02.847Z,1.63
2018-11-13T15:43:31.224Z,1.87
2018-11-13T15:45:59.963Z,4.13
2018-11-13T15:48:28.384Z,3.50
2018-11-13T15:50:57.002Z,3.67
2018-11-13T15:53:25.390Z,4.33
2018-11-13T15:55:53.797Z,4.43
2018-11-13T16:01:09.593Z,3.80
2018-11-13T16:03:39.200Z,4.43
2018-11-13T16:06:08.587Z,4.43
2018-11-13T16:08:38.424Z,7.57
2018-11-13T16:11:07.797Z,6.73
2018-11-13T16:13:36.683Z,5.00
2018-11-13T16:16:05.660Z,7.07
2018-11-13T16:18:34.675Z,5.83
2018-11-13T16:21:03.566Z,6.43
2018-11-13T16:23:32.617Z,5.43
2018-11-13T16:26:01.296Z,4.90
2018-11-13T16:28:30.649Z,3.17
2018-11-13T16:30:59.980Z,6.10
2018-11-13T16:33:49.436Z,5.77
2018-11-13T16:36:19.052Z,8.67
2018-11-13T16:38:59.645Z,9.47
2018-11-13T16:41:28.243Z,6.13
2018-11-13T16:44:20.040Z,6.73
2018-11-13T16:46:48.557Z,9.47
2018-11-13T16:49:23.940Z,10.27
2018-11-13T16:51:53.714Z,6.47
2018-11-13T16:54:22.590Z,5.53
2018-11-13T16:56:55.251Z,3.90
2018-11-13T16:59:24.026Z,5.97
2018-11-13T17:01:52.868Z,3.30
2018-11-13T17:04:21.620Z,5.07
2018-11-13T17:06:51.402Z,3.10
2018-11-13T17:09:20.249Z,3.20
2018-11-13T17:11:48.822Z,2.77
2018-11-13T17:14:17.376Z,3.40
2018-11-13T17:16:45.961Z,3.70
2018-11-13T17:19:14.688Z,9.73
2018-11-13T17:21:43.298Z,15.67
2018-11-13T17:24:11.916Z,10.97
2018-11-13T17:26:40.754Z,5.77
2018-11-13T17:29:09.182Z,5.97
2018-11-13T17:31:38.631Z,4.60
2018-11-13T17:34:07.121Z,4.07
2018-11-13T17:36:35.530Z,3.40
2018-11-13T17:39:04.863Z,4.37
2018-11-13T17:41:33.469Z,5.07
2018-11-13T17:44:02.178Z,5.33
2018-11-13T17:46:30.590Z,5.30
2018-11-13T17:48:58.999Z,4.10
2018-11-13T17:51:27.630Z,7.23
2018-11-13T17:53:56.011Z,8.83
2018-11-13T17:56:24.688Z,11.47
2018-11-13T17:58:53.521Z,6.00
2018-11-13T18:01:22.349Z,8.43
2018-11-13T18:03:51.062Z,7.00
2018-11-13T18:06:20.019Z,6.60
2018-11-13T18:08:49.016Z,8.10
2018-11-13T18:11:17.694Z,8.40
2018-11-13T18:13:46.390Z,7.60
2018-11-13T18:16:14.842Z,8.77
2018-11-13T18:18:43.198Z,9.33
2018-11-13T18:21:12.142Z,9.07
2018-11-13T18:23:40.659Z,7.10
2018-11-13T18:26:09.529Z,9.20
2018-11-13T18:28:38.509Z,9.57
2018-11-13T18:31:07.499Z,8.70
2018-11-13T18:33:36.155Z,7.57
2018-11-13T18:36:04.602Z,7.47
2018-11-13T18:38:33.132Z,7.80
2018-11-13T18:41:01.611Z,5.97
2018-11-13T18:43:30.010Z,7.30
2018-11-13T18:45:58.388Z,5.90
2018-11-13T18:48:27.386Z,6.87
2018-11-13T18:50:55.804Z,6.10
2018-11-13T18:53:24.544Z,8.00
2018-11-13T18:55:53.169Z,7.50
2018-11-13T18:58:22.094Z,12.67
2018-11-13T19:00:50.793Z,7.90
2018-11-13T19:03:19.747Z,7.27
2018-11-13T19:05:48.148Z,7.70
2018-11-13T19:08:17.206Z,6.30
2018-11-13T19:10:47.623Z,6.70
2018-11-13T19:13:18.266Z,5.53
2018-11-13T19:15:50.873Z,5.97
2018-11-13T19:18:20.832Z,7.00
2018-11-13T19:20:50.128Z,5.83
2018-11-13T19:23:19.766Z,6.70
2018-11-13T19:25:48.379Z,8.03
2018-11-13T19:28:18.111Z,8.30
2018-11-13T19:30:47.009Z,8.67
2018-11-13T19:33:15.446Z,9.03
2018-11-13T19:35:44.504Z,9.10
2018-11-13T19:38:12.802Z,11.90
2018-11-13T19:40:41.395Z,11.37
2018-11-13T19:43:11.426Z,10.30
2018-11-13T19:45:40.378Z,10.80
2018-11-13T19:48:09.107Z,13.00
2018-11-13T19:50:38.766Z,11.37
2018-11-13T19:53:07.412Z,13.27
2018-11-13T19:55:35.973Z,16.53
2018-11-13T19:58:04.679Z,16.83
2018-11-13T20:00:35.546Z,14.80
2018-11-13T20:03:05.848Z,17.93
2018-11-13T20:05:34.613Z,22.13
2018-11-13T20:08:03.727Z,25.47
2018-11-13T20:10:33.484Z,18.30
2018-11-13T20:13:03.265Z,14.63
2018-11-13T20:15:32.628Z,15.13
2018-11-13T20:18:01.568Z,12.63
2018-11-13T20:20:31.290Z,9.63
2018-11-13T20:23:00.972Z,11.37
2018-11-13T20:25:30.903Z,9.87
2018-11-13T20:27:59.695Z,9.67
2018-11-13T20:30:35.752Z,10.00
2018-11-13T20:33:04.456Z,8.80
2018-11-13T20:35:33.161Z,12.60
2018-11-13T20:38:02.359Z,15.73
2018-11-13T20:40:33.279Z,13.27
2018-11-13T20:43:03.380Z,12.37
2018-11-13T20:45:32.508Z,12.33
2018-11-13T20:48:00.915Z,12.40
2018-11-13T20:50:31.152Z,10.93
2018-11-13T20:52:59.789Z,11.53
2018-11-13T20:55:28.745Z,13.33
2018-11-13T20:57:57.420Z,19.07
2018-11-13T21:00:31.131Z,14.87
2018-11-13T21:03:00.205Z,14.87
2018-11-13T21:05:29.265Z,14.00
2018-11-13T21:07:57.728Z,14.80
2018-11-13T21:10:30.456Z,15.97
2018-11-13T21:12:59.688Z,17.17
2018-11-13T21:15:28.080Z,15.97
2018-11-13T21:17:56.747Z,15.93
2018-11-13T21:20:26.024Z,15.90
2018-11-13T21:22:54.451Z,15.83
2018-11-13T21:25:23.841Z,15.27
2018-11-13T21:27:56.395Z,15.70
2018-11-13T21:30:25.127Z,13.43
2018-11-13T21:32:54.387Z,16.97
2018-11-13T21:35:23.372Z,14.73
2018-11-13T21:37:53.590Z,15.53
2018-11-13T21:40:24.395Z,15.90
2018-11-13T21:42:53.767Z,15.13
2018-11-13T21:45:23.628Z,13.93
2018-11-13T21:47:52.614Z,16.33
2018-11-13T21:50:22.904Z,12.90
2018-11-13T21:52:51.292Z,18.73
2018-11-13T21:55:21.106Z,13.47
2018-11-13T21:57:50.458Z,13.60
2018-11-13T22:00:25.369Z,14.70
2018-11-13T22:02:56.118Z,12.60
2018-11-13T22:05:27.524Z,12.97
2018-11-13T22:07:56.040Z,13.83
2018-11-13T22:10:26.039Z,11.77
2018-11-13T22:12:54.827Z,13.80
2018-11-13T22:15:24.958Z,12.23
2018-11-13T22:17:53.721Z,11.37
2018-11-13T22:20:23.061Z,12.20
2018-11-13T22:22:53.420Z,11.13
2018-11-13T22:25:23.321Z,12.27
2018-11-13T22:27:53.231Z,12.87
